Time;durP1;ratioP1;P1;durP2;ratioP2;P2;SDS_P1;SDS_P2;PMS_P1;PMS_P2;Temp;Humidity;BMP_temperature;BMP_pressure;BME280_temperature;BME280_humidity;BME280_pressure;Samples;Min_cycle;Max_cycle;Signal;HPM_P1;HPM_P2
2022/11/21 00:00:31;;;;;;;12.52;7.78;;;;;;;;;;4974618;28;20037;-74
2022/11/21 00:03:00;;;;;;;10.65;6.38;;;;;;;;;;4974599;28;20034;-74
2022/11/21 00:05:26;;;;;;;13.30;6.78;;;;;;;;;;4974263;28;20035;-73
2022/11/21 00:07:52;;;;;;;9.38;3.92;;;;;;;;;;4957181;28;20026;-75
2022/11/21 00:10:18;;;;;;;8.68;3.22;;;;;;;;;;4974051;28;20023;-75
2022/11/21 00:12:44;;;;;;;7.95;3.63;;;;;;;;;;4974449;28;21068;-74
2022/11/21 00:15:10;;;;;;;7.65;3.72;;;;;;;;;;4973933;28;20034;-74
2022/11/21 00:17:36;;;;;;;5.80;3.15;;;;;;;;;;4974303;28;20557;-74
2022/11/21 00:20:02;;;;;;;7.60;3.35;;;;;;;;;;4974050;28;20050;-75
2022/11/21 00:22:30;;;;;;;6.97;3.10;;;;;;;;;;4973876;28;20359;-75
2022/11/21 00:24:56;;;;;;;9.68;3.00;;;;;;;;;;4974208;28;20078;-74
2022/11/21 00:27:22;;;;;;;8.02;2.47;;;;;;;;;;4973634;28;20029;-74
2022/11/21 00:29:48;;;;;;;6.28;2.63;;;;;;;;;;4974030;28;20101;-75
2022/11/21 00:32:14;;;;;;;7.80;2.55;;;;;;;;;;4973680;28;20023;-76
2022/11/21 00:34:40;;;;;;;5.63;2.22;;;;;;;;;;4974101;28;20039;-74
2022/11/21 00:37:06;;;;;;;6.10;2.03;;;;;;;;;;4973836;28;20105;-74
2022/11/21 00:39:32;;;;;;;5.55;2.63;;;;;;;;;;4973568;28;20078;-73
2022/11/21 00:41:58;;;;;;;4.07;1.63;;;;;;;;;;4973930;28;20489;-75
2022/11/21 00:44:24;;;;;;;6.20;1.80;;;;;;;;;;4973441;28;20386;-73
2022/11/21 00:46:50;;;;;;;7.00;1.80;;;;;;;;;;4973709;28;20033;-75
2022/11/21 00:49:16;;;;;;;7.68;1.83;;;;;;;;;;4973519;28;20023;-74
2022/11/21 00:51:42;;;;;;;7.20;1.85;;;;;;;;;;4973555;28;20026;-74
2022/11/21 00:54:08;;;;;;;6.10;2.67;;;;;;;;;;4973639;28;20031;-74
2022/11/21 00:56:34;;;;;;;7.63;2.92;;;;;;;;;;4973273;28;20033;-75
2022/11/21 00:59:01;;;;;;;5.25;2.60;;;;;;;;;;4973621;28;20467;-75
2022/11/21 01:01:27;;;;;;;6.53;2.80;;;;;;;;;;4973290;28;20023;-74
2022/11/21 01:03:53;;;;;;;9.82;4.07;;;;;;;;;;4973820;28;20063;-75
2022/11/21 01:06:19;;;;;;;6.93;4.43;;;;;;;;;;4973540;28;20034;-74
2022/11/21 01:08:45;;;;;;;6.43;3.90;;;;;;;;;;4973204;28;20422;-74
2022/11/21 01:11:12;;;;;;;8.48;3.03;;;;;;;;;;4973348;28;20023;-75
2022/11/21 01:13:39;;;;;;;6.93;2.67;;;;;;;;;;4972888;28;20035;-75
2022/11/21 01:16:05;;;;;;;7.65;3.35;;;;;;;;;;4973478;28;20425;-74
2022/11/21 01:18:31;;;;;;;5.43;2.40;;;;;;;;;;4973240;28;20379;-74
2022/11/21 01:21:04;;;;;;;4.95;1.50;;;;;;;;;;4973375;28;20114;-74
2022/11/21 01:23:30;;;;;;;6.60;1.52;;;;;;;;;;4972964;28;20035;-73
2022/11/21 01:26:06;;;;;;;4.40;1.30;;;;;;;;;;4973348;28;20082;-75
2022/11/21 01:28:32;;;;;;;6.18;1.58;;;;;;;;;;4972986;28;20103;-75
2022/11/21 01:31:17;;;;;;;4.72;1.73;;;;;;;;;;4973422;28;20023;-73
2022/11/21 01:33:43;;;;;;;6.70;1.73;;;;;;;;;;4973292;28;20039;-73
2022/11/21 01:36:10;;;;;;;4.78;1.80;;;;;;;;;;4972824;28;20114;-75
2022/11/21 01:38:37;;;;;;;7.55;1.92;;;;;;;;;;4973123;28;20027;-74
2022/11/21 01:41:03;;;;;;;5.05;1.58;;;;;;;;;;4972991;28;20027;-74
2022/11/21 01:43:29;;;;;;;6.18;2.70;;;;;;;;;;4972986;28;20399;-74
2022/11/21 01:45:57;;;;;;;5.93;1.70;;;;;;;;;;4973217;28;20027;-73
2022/11/21 01:48:44;;;;;;;10.93;7.40;;;;;;;;;;4972811;28;20062;-74
2022/11/21 01:51:13;;;;;;;7.35;3.10;;;;;;;;;;4972649;28;20021;-75
2022/11/21 01:53:41;;;;;;;4.78;1.73;;;;;;;;;;4973023;28;20031;-74
2022/11/21 01:56:07;;;;;;;5.22;2.00;;;;;;;;;;4972653;28;20109;-75
2022/11/21 01:58:34;;;;;;;6.70;1.65;;;;;;;;;;4973698;28;20470;-75
2022/11/21 02:01:01;;;;;;;5.63;1.80;;;;;;;;;;4976585;28;20082;-75
2022/11/21 02:03:28;;;;;;;5.03;1.40;;;;;;;;;;4976645;28;20130;-74
2022/11/21 02:05:55;;;;;;;5.72;1.73;;;;;;;;;;4976464;28;20023;-76
2022/11/21 02:08:21;;;;;;;5.57;1.55;;;;;;;;;;4976545;28;20030;-73
2022/11/21 02:11:05;;;;;;;4.68;1.52;;;;;;;;;;4976451;28;20478;-75
2022/11/21 02:13:31;;;;;;;6.38;1.83;;;;;;;;;;4959353;28;20031;-75
2022/11/21 02:15:57;;;;;;;7.95;2.70;;;;;;;;;;4976121;28;20023;-75
2022/11/21 02:18:23;;;;;;;9.45;1.58;;;;;;;;;;4976515;28;20434;-75
2022/11/21 02:20:52;;;;;;;6.88;2.80;;;;;;;;;;4976103;28;20129;-76
2022/11/21 02:23:26;;;;;;;5.57;2.50;;;;;;;;;;4976311;28;20031;-75
2022/11/21 02:25:53;;;;;;;5.95;2.20;;;;;;;;;;4976106;28;20471;-75
2022/11/21 02:28:22;;;;;;;4.30;1.92;;;;;;;;;;4976257;28;20023;-74
2022/11/21 02:30:48;;;;;;;6.82;2.90;;;;;;;;;;4975956;28;20094;-76
2022/11/21 02:33:15;;;;;;;7.47;2.70;;;;;;;;;;4976124;28;20102;-75
2022/11/21 02:35:41;;;;;;;6.55;2.70;;;;;;;;;;4975948;28;20033;-73
2022/11/21 02:38:27;;;;;;;6.60;2.97;;;;;;;;;;4976161;28;20093;-74
2022/11/21 02:41:12;;;;;;;7.75;2.80;;;;;;;;;;4975947;28;20462;-75
2022/11/21 02:43:48;;;;;;;6.70;2.67;;;;;;;;;;4976015;28;20055;-74
2022/11/21 02:46:14;;;;;;;7.03;3.03;;;;;;;;;;4975651;28;20090;-75
2022/11/21 02:48:41;;;;;;;7.97;2.45;;;;;;;;;;4976011;28;20015;-74
2022/11/21 02:51:07;;;;;;;9.10;2.92;;;;;;;;;;4975474;28;20394;-74
2022/11/21 02:53:33;;;;;;;8.15;2.65;;;;;;;;;;4975753;28;20031;-76
2022/11/21 02:55:59;;;;;;;6.75;2.90;;;;;;;;;;4975624;28;20497;-73
2022/11/21 02:58:25;;;;;;;10.25;3.03;;;;;;;;;;4975644;28;20035;-75
2022/11/21 03:00:53;;;;;;;4.65;2.55;;;;;;;;;;4975634;28;20432;-74
2022/11/21 03:03:19;;;;;;;7.55;2.92;;;;;;;;;;4975577;28;20030;-74
2022/11/21 03:05:46;;;;;;;7.38;2.92;;;;;;;;;;4975677;28;20034;-74
2022/11/21 03:08:12;;;;;;;6.35;2.67;;;;;;;;;;4975336;28;20505;-74
2022/11/21 03:10:38;;;;;;;4.63;1.65;;;;;;;;;;4974289;28;20049;-74
2022/11/21 03:13:04;;;;;;;4.25;0.90;;;;;;;;;;4975314;28;20034;-74
2022/11/21 03:15:32;;;;;;;2.42;1.20;;;;;;;;;;4975531;28;20038;-74
2022/11/21 03:18:01;;;;;;;6.72;0.90;;;;;;;;;;4975389;28;20453;-74
2022/11/21 03:20:27;;;;;;;2.53;1.13;;;;;;;;;;4975050;28;20050;-73
2022/11/21 03:22:53;;;;;;;4.70;1.15;;;;;;;;;;4975264;28;20102;-74
2022/11/21 03:25:20;;;;;;;1.35;0.32;;;;;;;;;;4974939;28;20478;-74
2022/11/21 03:27:46;;;;;;;4.15;0.98;;;;;;;;;;4975156;28;20410;-75
2022/11/21 03:30:12;;;;;;;3.25;0.68;;;;;;;;;;4974840;28;20494;-76
2022/11/21 03:32:38;;;;;;;1.02;0.50;;;;;;;;;;4975041;28;20454;-75
2022/11/21 03:35:05;;;;;;;3.58;0.43;;;;;;;;;;4974914;28;20044;-76
2022/11/21 03:37:31;;;;;;;2.83;0.45;;;;;;;;;;4974954;28;20022;-74
2022/11/21 03:39:57;;;;;;;3.35;0.65;;;;;;;;;;4974978;28;20022;-75
2022/11/21 03:42:23;;;;;;;4.93;0.88;;;;;;;;;;4974676;28;20485;-74
2022/11/21 03:44:49;;;;;;;1.88;0.50;;;;;;;;;;4974855;28;20042;-76
2022/11/21 03:47:15;;;;;;;1.88;0.40;;;;;;;;;;4974488;28;20109;-75
2022/11/21 03:49:41;;;;;;;0.95;0.50;;;;;;;;;;4974734;28;20351;-76
2022/11/21 03:52:07;;;;;;;2.83;0.32;;;;;;;;;;4974694;28;20078;-73
2022/11/21 03:54:33;;;;;;;2.67;0.40;;;;;;;;;;4974545;28;20102;-76
2022/11/21 03:56:59;;;;;;;2.90;0.50;;;;;;;;;;4974794;28;20054;-75
2022/11/21 03:59:25;;;;;;;1.85;0.30;;;;;;;;;;4974212;28;20098;-74
2022/11/21 04:01:51;;;;;;;1.50;0.43;;;;;;;;;;4974595;28;20041;-73
2022/11/21 04:04:17;;;;;;;1.17;0.47;;;;;;;;;;4974219;28;20031;-74
2022/11/21 04:06:44;;;;;;;1.55;0.52;;;;;;;;;;4974697;28;20113;-75
2022/11/21 04:09:10;;;;;;;3.65;0.40;;;;;;;;;;4974528;28;20031;-74
2022/11/21 04:11:37;;;;;;;1.15;0.50;;;;;;;;;;4973940;28;20027;-74
2022/11/21 04:14:03;;;;;;;2.40;1.42;;;;;;;;;;4974435;28;20065;-74
2022/11/21 04:16:29;;;;;;;1.17;0.50;;;;;;;;;;4973992;28;20031;-74
2022/11/21 04:18:55;;;;;;;1.20;0.55;;;;;;;;;;4974214;28;20031;-74
2022/11/21 04:21:21;;;;;;;3.22;0.93;;;;;;;;;;4973681;28;20062;-73
2022/11/21 04:23:47;;;;;;;1.63;0.82;;;;;;;;;;4974076;28;20090;-75
2022/11/21 04:26:13;;;;;;;3.97;1.60;;;;;;;;;;4974208;28;20390;-74
2022/11/21 04:28:39;;;;;;;4.32;2.10;;;;;;;;;;4973863;28;20023;-75
2022/11/21 04:31:06;;;;;;;2.42;1.00;;;;;;;;;;4974109;28;20026;-75
2022/11/21 04:33:32;;;;;;;6.95;4.90;;;;;;;;;;4956312;28;20042;-74
2022/11/21 04:35:58;;;;;;;7.45;4.72;;;;;;;;;;4973993;28;20109;-74
2022/11/21 04:38:24;;;;;;;3.03;1.17;;;;;;;;;;4973776;28;20147;-75
2022/11/21 04:40:50;;;;;;;4.32;2.00;;;;;;;;;;4973860;28;20026;-75
2022/11/21 04:43:16;;;;;;;6.10;3.17;;;;;;;;;;4973810;28;20023;-75
2022/11/21 04:45:43;;;;;;;5.50;2.65;;;;;;;;;;4956261;28;20034;-76
2022/11/21 04:48:10;;;;;;;12.32;6.80;;;;;;;;;;4973149;28;20037;-75
2022/11/21 04:50:36;;;;;;;22.00;13.50;;;;;;;;;;4973653;28;20038;-79
2022/11/21 04:53:02;;;;;;;20.70;13.25;;;;;;;;;;4974134;28;20086;-79
2022/11/21 04:55:32;;;;;;;13.00;5.85;;;;;;;;;;4982948;28;20026;-80
2022/11/21 04:57:58;;;;;;;9.27;3.67;;;;;;;;;;4992346;28;20057;-80
2022/11/21 05:00:24;;;;;;;7.40;3.72;;;;;;;;;;4993059;28;20422;-79
2022/11/21 05:02:50;;;;;;;8.98;5.20;;;;;;;;;;4993026;28;20026;-80
2022/11/21 05:05:16;;;;;;;6.05;3.33;;;;;;;;;;4986956;28;20010;-80
2022/11/21 05:07:42;;;;;;;3.10;1.83;;;;;;;;;;4974518;28;20493;-79
2022/11/21 05:10:09;;;;;;;4.82;2.20;;;;;;;;;;4993352;28;20109;-80
2022/11/21 05:15:20;;;;;;;7.15;4.10;;;;;;;;;;4993107;28;20122;-79
2022/11/21 05:17:46;;;;;;;4.95;2.85;;;;;;;;;;4991907;28;20481;-79
2022/11/21 05:20:18;;;;;;;5.10;2.10;;;;;;;;;;4992492;28;20089;-81
2022/11/21 05:23:09;;;;;;;4.07;2.00;;;;;;;;;;4990290;28;20031;-79
2022/11/21 05:26:20;;;;;;;;;;;;;;;;;;;;;
2022/11/21 05:38:26;;;;;;;5.20;2.03;;;;;;;;;;4914305;28;20064;-78
2022/11/21 05:40:55;;;;;;;2.08;0.88;;;;;;;;;;4988781;28;20045;-78
2022/11/21 05:44:05;;;;;;;1.45;0.80;;;;;;;;;;4996957;28;20121;-78
2022/11/21 05:46:34;;;;;;;1.75;0.60;;;;;;;;;;4995533;28;20083;-78
2022/11/21 05:49:15;;;;;;;2.30;0.90;;;;;;;;;;4991202;28;20050;-79
2022/11/21 05:51:47;;;;;;;2.25;0.65;;;;;;;;;;4996666;28;20038;-78
2022/11/21 05:54:16;;;;;;;1.75;0.68;;;;;;;;;;4993607;28;20030;-78
2022/11/21 05:56:48;;;;;;;1.02;0.55;;;;;;;;;;5015848;28;20022;-77
2022/11/21 05:59:16;;;;;;;1.20;0.70;;;;;;;;;;5009831;28;20042;-78
2022/11/21 06:05:08;;;;;;;1.55;1.00;;;;;;;;;;4995944;28;20056;-78
2022/11/21 06:07:34;;;;;;;1.33;1.23;;;;;;;;;;4989213;28;20041;-76
2022/11/21 06:10:00;;;;;;;1.60;1.50;;;;;;;;;;4976610;28;20042;-77
2022/11/21 06:12:26;;;;;;;2.25;1.40;;;;;;;;;;4976696;28;20549;-77
2022/11/21 06:14:52;;;;;;;1.35;0.90;;;;;;;;;;4976502;28;20035;-78
2022/11/21 06:17:19;;;;;;;1.58;1.10;;;;;;;;;;4976927;28;20030;-78
2022/11/21 06:19:45;;;;;;;2.22;0.90;;;;;;;;;;4976540;28;20051;-77
2022/11/21 06:22:11;;;;;;;1.80;1.02;;;;;;;;;;4984159;28;20039;-79
2022/11/21 06:24:37;;;;;;;2.08;1.25;;;;;;;;;;4986192;28;20041;-77
2022/11/21 06:27:03;;;;;;;2.60;1.15;;;;;;;;;;4993408;28;20022;-78
2022/11/21 06:29:29;;;;;;;2.17;0.90;;;;;;;;;;4982999;28;20489;-78
2022/11/21 06:31:55;;;;;;;1.23;0.60;;;;;;;;;;4985980;28;20042;-79
2022/11/21 06:34:21;;;;;;;0.52;0.30;;;;;;;;;;4984693;28;20041;-78
2022/11/21 06:36:48;;;;;;;1.42;0.90;;;;;;;;;;4983883;28;20093;-79
2022/11/21 06:39:15;;;;;;;7.25;3.35;;;;;;;;;;4994404;28;20022;-80
2022/11/21 06:41:41;;;;;;;1.35;0.43;;;;;;;;;;4976026;28;20037;-78
2022/11/21 06:44:07;;;;;;;0.90;0.43;;;;;;;;;;4985606;28;20520;-80
2022/11/21 06:46:33;;;;;;;1.13;0.52;;;;;;;;;;4974570;28;20033;-79
2022/11/21 06:48:59;;;;;;;2.17;1.30;;;;;;;;;;4964316;28;20367;-81
2022/11/21 06:51:25;;;;;;;1.65;1.00;;;;;;;;;;4990027;28;20027;-78
2022/11/21 06:53:55;;;;;;;1.77;1.02;;;;;;;;;;4981897;28;20035;-80
2022/11/21 06:56:28;;;;;;;1.10;0.47;;;;;;;;;;4981707;28;20033;-80
2022/11/21 06:58:54;;;;;;;1.50;0.68;;;;;;;;;;4982156;28;20030;-78
2022/11/21 07:01:21;;;;;;;1.65;0.70;;;;;;;;;;4983552;28;20030;-78
2022/11/21 07:03:49;;;;;;;1.23;0.40;;;;;;;;;;4985545;28;20022;-80
2022/11/21 07:06:16;;;;;;;1.60;0.57;;;;;;;;;;4981107;28;20062;-79
2022/11/21 07:08:42;;;;;;;1.42;0.80;;;;;;;;;;4991972;28;20026;-77
2022/11/21 07:11:09;;;;;;;0.98;0.55;;;;;;;;;;4993213;28;20855;-79
2022/11/21 07:13:37;;;;;;;1.13;0.55;;;;;;;;;;4992470;28;20370;-79
2022/11/21 07:16:06;;;;;;;3.72;0.70;;;;;;;;;;4990946;28;20339;-80
2022/11/21 07:18:33;;;;;;;2.33;1.10;;;;;;;;;;5001102;28;20026;-79
2022/11/21 07:21:00;;;;;;;3.90;1.75;;;;;;;;;;4992272;28;20054;-80
2022/11/21 07:23:26;;;;;;;3.30;1.98;;;;;;;;;;5008125;28;20045;-80
2022/11/21 07:25:59;;;;;;;0.88;0.50;;;;;;;;;;4999268;28;20036;-78
2022/11/21 07:28:25;;;;;;;0.77;0.47;;;;;;;;;;4977719;28;20026;-79
2022/11/21 07:30:51;;;;;;;0.77;0.47;;;;;;;;;;4980254;28;20482;-78
2022/11/21 07:33:17;;;;;;;1.35;0.70;;;;;;;;;;5001632;28;20033;-79
2022/11/21 07:35:44;;;;;;;1.65;0.52;;;;;;;;;;4991714;28;20034;-79
2022/11/21 07:38:13;;;;;;;1.00;0.68;;;;;;;;;;4991444;28;20038;-78
2022/11/21 07:40:39;;;;;;;2.17;0.80;;;;;;;;;;4981282;28;20043;-78
2022/11/21 07:43:11;;;;;;;4.20;1.90;;;;;;;;;;4981123;28;20485;-78
2022/11/21 07:45:37;;;;;;;3.80;2.13;;;;;;;;;;4984652;28;20077;-79
2022/11/21 07:48:05;;;;;;;6.20;3.15;;;;;;;;;;4994291;28;20080;-78
2022/11/21 07:50:38;;;;;;;3.90;2.35;;;;;;;;;;4987805;28;20029;-78
2022/11/21 07:53:11;;;;;;;5.13;2.38;;;;;;;;;;4987783;28;20034;-78
2022/11/21 07:55:37;;;;;;;2.88;1.48;;;;;;;;;;4979271;28;20505;-79
2022/11/21 07:58:07;;;;;;;2.15;1.13;;;;;;;;;;4984252;28;20123;-77
2022/11/21 08:00:35;;;;;;;2.28;0.70;;;;;;;;;;4986408;28;20037;-81
2022/11/21 08:03:03;;;;;;;2.85;1.48;;;;;;;;;;4981882;28;20125;-79
2022/11/21 08:05:29;;;;;;;3.05;1.17;;;;;;;;;;4986352;28;20033;-80
2022/11/21 08:08:01;;;;;;;3.45;1.58;;;;;;;;;;4975762;28;20378;-78
2022/11/21 08:10:27;;;;;;;1.35;0.90;;;;;;;;;;4982561;28;20018;-77
2022/11/21 08:12:54;;;;;;;1.95;0.95;;;;;;;;;;4972958;28;20034;-78
2022/11/21 08:15:20;;;;;;;0.93;0.52;;;;;;;;;;4979826;28;20106;-84
2022/11/21 08:17:48;;;;;;;1.10;0.60;;;;;;;;;;4978711;28;20031;-78
2022/11/21 08:20:14;;;;;;;1.75;0.90;;;;;;;;;;4970713;28;20126;-78
2022/11/21 08:22:40;;;;;;;2.80;1.83;;;;;;;;;;4980294;28;20049;-80
2022/11/21 08:25:07;;;;;;;2.45;0.75;;;;;;;;;;4987954;28;20393;-77
2022/11/21 08:27:33;;;;;;;1.67;0.70;;;;;;;;;;4991444;28;20034;-81
2022/11/21 08:30:05;;;;;;;2.03;0.90;;;;;;;;;;4980102;28;20358;-80
2022/11/21 08:32:32;;;;;;;2.15;1.45;;;;;;;;;;4972047;28;20394;-80
2022/11/21 08:34:58;;;;;;;0.82;0.40;;;;;;;;;;4984986;28;20113;-79
2022/11/21 08:37:26;;;;;;;262.50;79.45;;;;;;;;;;4989911;28;20045;-78
2022/11/21 08:39:53;;;;;;;66.80;59.92;;;;;;;;;;4978637;28;20115;-79
2022/11/21 08:42:19;;;;;;;3.83;2.28;;;;;;;;;;4972839;28;20470;-78
2022/11/21 08:44:45;;;;;;;2.80;1.08;;;;;;;;;;4994284;28;20030;-80
2022/11/21 08:47:11;;;;;;;2.40;1.60;;;;;;;;;;4997615;28;20025;-79
2022/11/21 08:49:37;;;;;;;1.45;0.57;;;;;;;;;;4980433;28;20022;-80
2022/11/21 08:52:03;;;;;;;1.60;0.90;;;;;;;;;;4980634;28;20043;-78
2022/11/21 08:54:29;;;;;;;1.83;1.10;;;;;;;;;;4984943;28;20030;-77
2022/11/21 08:56:55;;;;;;;1.77;1.10;;;;;;;;;;4976222;28;20035;-78
2022/11/21 08:59:21;;;;;;;3.13;2.22;;;;;;;;;;4989406;28;20035;-78
2022/11/21 09:01:48;;;;;;;1.15;0.63;;;;;;;;;;4984530;28;20026;-78
2022/11/21 09:04:14;;;;;;;9.70;3.50;;;;;;;;;;4981885;28;20093;-78
2022/11/21 09:06:40;;;;;;;10.95;4.57;;;;;;;;;;4981764;28;20030;-80
2022/11/21 09:09:07;;;;;;;7.05;2.45;;;;;;;;;;4983415;28;20023;-79
2022/11/21 09:11:35;;;;;;;2.20;0.90;;;;;;;;;;4990186;28;20529;-80
2022/11/21 09:19:34;;;;;;;4.25;1.73;;;;;;;;;;4982650;28;20000;-82
2022/11/21 09:22:01;;;;;;;1.20;0.50;;;;;;;;;;4981659;28;20034;-78
2022/11/21 09:24:27;;;;;;;1.73;0.63;;;;;;;;;;4983536;28;20034;-80
2022/11/21 09:26:53;;;;;;;1.35;0.55;;;;;;;;;;4973687;28;20053;-79
2022/11/21 09:29:19;;;;;;;1.80;1.23;;;;;;;;;;4990697;28;20512;-79
2022/11/21 09:31:45;;;;;;;2.15;1.00;;;;;;;;;;4972988;28;20473;-78
2022/11/21 09:34:11;;;;;;;0.93;0.50;;;;;;;;;;4991318;28;20101;-81
2022/11/21 09:36:37;;;;;;;5.80;1.63;;;;;;;;;;4984177;28;20031;-82
2022/11/21 09:39:04;;;;;;;6.95;2.47;;;;;;;;;;4974232;28;20502;-79
2022/11/21 09:44:31;;;;;;;1.10;0.60;;;;;;;;;;4972588;28;20553;-77
2022/11/21 09:47:03;;;;;;;2.45;1.10;;;;;;;;;;4985481;28;20036;-77
2022/11/21 09:49:31;;;;;;;4.13;1.90;;;;;;;;;;4990710;28;20022;-76
2022/11/21 09:51:58;;;;;;;0.40;0.22;;;;;;;;;;4974525;28;20057;-79
2022/11/21 09:54:30;;;;;;;1.67;0.80;;;;;;;;;;4971072;28;20065;-76
2022/11/21 09:56:56;;;;;;;2.78;0.70;;;;;;;;;;4970788;28;20034;-77
2022/11/21 09:59:41;;;;;;;2.08;1.42;;;;;;;;;;4971089;28;20026;-76
2022/11/21 10:02:25;;;;;;;2.65;1.30;;;;;;;;;;4978858;28;20109;-76
2022/11/21 10:04:52;;;;;;;1.17;0.70;;;;;;;;;;4991284;28;20532;-76
2022/11/21 10:07:18;;;;;;;1.60;0.90;;;;;;;;;;4986873;28;21279;-77
2022/11/21 10:09:44;;;;;;;1.40;0.95;;;;;;;;;;4984793;28;20027;-76
2022/11/21 10:15:13;;;;;;;2.65;1.83;;;;;;;;;;4972773;28;20513;-77
2022/11/21 10:17:39;;;;;;;2.00;0.90;;;;;;;;;;4971993;28;20031;-78
2022/11/21 10:20:24;;;;;;;2.35;1.20;;;;;;;;;;4972914;28;20051;-76
2022/11/21 10:23:08;;;;;;;4.95;2.40;;;;;;;;;;4977292;28;20042;-79
2022/11/21 10:25:38;;;;;;;2.83;1.75;;;;;;;;;;4985610;28;20061;-76
2022/11/21 10:28:26;;;;;;;2.72;1.75;;;;;;;;;;4992859;28;20041;-77
2022/11/21 10:30:54;;;;;;;2.40;1.50;;;;;;;;;;4972580;28;20069;-77
2022/11/21 10:33:28;;;;;;;3.88;1.35;;;;;;;;;;4980711;28;20042;-77
2022/11/21 10:35:56;;;;;;;5.05;2.55;;;;;;;;;;4994228;28;20463;-78
2022/11/21 10:38:49;;;;;;;1.88;1.13;;;;;;;;;;4993319;28;20026;-77
2022/11/21 10:41:26;;;;;;;1.45;1.00;;;;;;;;;;4992816;28;20089;-79
2022/11/21 10:47:00;;;;;;;1.10;0.75;;;;;;;;;;4985171;28;20045;-77
2022/11/21 10:49:27;;;;;;;3.67;2.85;;;;;;;;;;4985222;28;20038;-77
2022/11/21 10:51:59;;;;;;;2.50;1.50;;;;;;;;;;4986792;28;20031;-79
2022/11/21 10:57:13;;;;;;;9.63;5.32;;;;;;;;;;4987233;28;20170;-77
2022/11/21 10:59:40;;;;;;;5.97;3.47;;;;;;;;;;4974796;28;20509;-78
2022/11/21 11:02:12;;;;;;;4.35;2.55;;;;;;;;;;4984266;28;20031;-77
2022/11/21 11:04:38;;;;;;;5.05;3.17;;;;;;;;;;4985502;28;20976;-78
2022/11/21 11:09:39;;;;;;;4.10;3.05;;;;;;;;;;4983324;28;20038;-79
2022/11/21 11:12:24;;;;;;;8.05;7.28;;;;;;;;;;4989103;28;20034;-78
2022/11/21 11:14:50;;;;;;;;;;;;;;;;;;5000596;28;20037;-78
2022/11/21 11:17:16;;;;;;;3.95;1.98;;;;;;;;;;4989646;28;19910;-77
2022/11/21 11:19:59;;;;;;;8.38;6.93;;;;;;;;;;4981488;28;20066;-78
2022/11/21 11:22:29;;;;;;;10.27;9.15;;;;;;;;;;4983417;28;20117;-77
2022/11/21 11:24:55;;;;;;;2.75;1.00;;;;;;;;;;4987256;28;20093;-78
2022/11/21 11:27:40;;;;;;;3.50;1.20;;;;;;;;;;4983927;28;20030;-77
2022/11/21 11:30:06;;;;;;;;;;;;;;;;;;4987105;28;20082;-77
2022/11/21 11:32:32;;;;;;;3.05;1.70;;;;;;;;;;4984724;28;19921;-79
2022/11/21 11:34:59;;;;;;;2.67;1.50;;;;;;;;;;4994719;28;20113;-78
2022/11/21 11:37:46;;;;;;;1.33;1.00;;;;;;;;;;4987122;28;20994;-76
2022/11/21 11:40:18;;;;;;;1.20;1.00;;;;;;;;;;4989659;28;20085;-78
2022/11/21 11:48:44;;;;;;;2.38;1.10;;;;;;;;;;4990624;28;20126;-79
2022/11/21 11:51:30;;;;;;;2.83;1.67;;;;;;;;;;4979418;28;20034;-77
2022/11/21 11:54:03;;;;;;;2.38;1.67;;;;;;;;;;4979971;28;20043;-77
2022/11/21 11:56:33;;;;;;;2.42;1.17;;;;;;;;;;4987583;28;20492;-78
2022/11/21 11:59:23;;;;;;;2.75;2.10;;;;;;;;;;4980706;28;20042;-79
2022/11/21 12:01:52;;;;;;;1.95;1.23;;;;;;;;;;4986716;28;20046;-80
2022/11/21 12:04:20;;;;;;;2.22;1.00;;;;;;;;;;4986105;28;20506;-79
2022/11/21 12:06:46;;;;;;;3.47;1.63;;;;;;;;;;4966272;28;20421;-78
2022/11/21 12:09:33;;;;;;;2.08;1.30;;;;;;;;;;4988813;28;20420;-79
2022/11/21 12:12:35;;;;;;;2.78;1.35;;;;;;;;;;4991402;28;20466;-78
2022/11/21 12:18:05;;;;;;;6.70;3.75;;;;;;;;;;4986047;28;20040;-79
2022/11/21 12:20:50;;;;;;;3.35;2.40;;;;;;;;;;4985794;28;20046;-77
2022/11/21 12:23:17;;;;;;;3.20;2.45;;;;;;;;;;4997073;28;20023;-78
2022/11/21 12:26:02;;;;;;;4.28;3.58;;;;;;;;;;4985640;28;20498;-77
2022/11/21 12:28:46;;;;;;;3.47;0.93;;;;;;;;;;4991341;28;20117;-77
2022/11/21 12:31:25;;;;;;;6.13;4.15;;;;;;;;;;4994254;28;20034;-77
2022/11/21 12:34:09;;;;;;;4.65;3.58;;;;;;;;;;4990921;28;20457;-78
2022/11/21 12:36:39;;;;;;;2.43;1.70;;;;;;;;;;4992735;28;20032;-77
2022/11/21 12:39:05;;;;;;;3.05;2.25;;;;;;;;;;4988917;28;20269;-77
2022/11/21 12:44:50;;;;;;;5.15;3.88;;;;;;;;;;4979811;28;20197;-77
2022/11/21 12:54:29;;;;;;;5.35;4.47;;;;;;;;;;4982876;28;20034;-77
2022/11/21 12:56:22;;;;;;;6.03;4.10;;;;;;;;;;4980522;28;20073;-78
2022/11/21 12:58:50;;;;;;;6.53;5.00;;;;;;;;;;4990347;28;20101;-79
2022/11/21 13:01:26;;;;;;;5.43;4.07;;;;;;;;;;4989505;28;20034;-76
2022/11/21 13:03:56;;;;;;;3.55;2.05;;;;;;;;;;4994334;28;20437;-76
2022/11/21 13:06:24;;;;;;;7.28;5.38;;;;;;;;;;4971719;28;20035;-77
2022/11/21 13:08:52;;;;;;;2.97;1.60;;;;;;;;;;4988299;28;20033;-79
2022/11/21 13:14:30;;;;;;;2.35;1.40;;;;;;;;;;4990722;28;20057;-75
2022/11/21 13:17:15;;;;;;;2.15;0.90;;;;;;;;;;4987123;28;20094;-75
2022/11/21 13:19:41;;;;;;;;;;;;;;;;;;4978059;28;20816;-77
2022/11/21 13:22:27;;;;;;;3.30;1.40;;;;;;;;;;4992011;28;19906;-76
2022/11/21 13:24:55;;;;;;;3.22;2.50;;;;;;;;;;4991906;28;20022;-77
2022/11/21 13:27:23;;;;;;;3.20;1.50;;;;;;;;;;4991539;28;20026;-77
2022/11/21 13:30:11;;;;;;;3.25;1.10;;;;;;;;;;4992420;28;20105;-78
2022/11/21 13:32:55;;;;;;;19.92;7.25;;;;;;;;;;4989528;28;20500;-78
2022/11/21 13:35:21;;;;;;;;;;;;;;;;;;4973599;28;20427;-79
2022/11/21 13:38:07;;;;;;;4.93;2.88;;;;;;;;;;4976397;28;20386;-77
2022/11/21 13:40:33;;;;;;;4.97;3.85;;;;;;;;;;4982921;28;20487;-78
2022/11/21 13:45:52;;;;;;;4.60;3.83;;;;;;;;;;4977685;28;20089;-78
2022/11/21 13:48:37;;;;;;;6.10;4.72;;;;;;;;;;4982479;28;20034;-78
2022/11/21 13:51:22;;;;;;;6.25;4.10;;;;;;;;;;4984633;28;20133;-77
2022/11/21 13:54:07;;;;;;;5.45;4.03;;;;;;;;;;4976267;28;20490;-78
2022/11/21 13:56:36;;;;;;;8.73;5.40;;;;;;;;;;5003172;28;20034;-79
2022/11/21 13:59:21;;;;;;;7.93;5.13;;;;;;;;;;4986354;28;20034;-78
2022/11/21 14:01:47;;;;;;;7.78;5.88;;;;;;;;;;5002762;28;20033;-79
2022/11/21 14:04:24;;;;;;;4.30;2.58;;;;;;;;;;5002063;28;20027;-79
2022/11/21 14:06:50;;;;;;;4.60;2.55;;;;;;;;;;4988599;28;20022;-78
2022/11/21 14:09:19;;;;;;;3.63;1.95;;;;;;;;;;4992100;28;20041;-77
2022/11/21 14:11:56;;;;;;;2.58;1.60;;;;;;;;;;4997164;28;20121;-78
2022/11/21 14:14:42;;;;;;;3.92;2.50;;;;;;;;;;5000707;28;20406;-78
2022/11/21 14:17:28;;;;;;;5.57;2.70;;;;;;;;;;4997382;28;20482;-77
2022/11/21 14:19:55;;;;;;;3.35;2.30;;;;;;;;;;4997505;28;20069;-78
2022/11/21 14:22:27;;;;;;;3.28;2.05;;;;;;;;;;4996450;28;20038;-78
2022/11/21 14:24:55;;;;;;;7.80;4.78;;;;;;;;;;5001276;28;20030;-79
2022/11/21 14:27:29;;;;;;;8.10;5.10;;;;;;;;;;5000315;28;20029;-78
2022/11/21 14:29:55;;;;;;;7.05;4.28;;;;;;;;;;4992810;28;20034;-77
2022/11/21 14:32:40;;;;;;;9.07;4.95;;;;;;;;;;4989611;28;20046;-78
2022/11/21 14:35:10;;;;;;;4.85;3.20;;;;;;;;;;4983253;28;20077;-77
2022/11/21 14:37:40;;;;;;;7.47;6.22;;;;;;;;;;4987491;28;20044;-78
2022/11/21 14:40:10;;;;;;;15.05;9.48;;;;;;;;;;5004772;28;20033;-77
2022/11/21 14:42:36;;;;;;;12.15;9.05;;;;;;;;;;4975615;28;20044;-77
2022/11/21 14:45:06;;;;;;;8.73;6.35;;;;;;;;;;4976039;28;20031;-76
2022/11/21 14:47:32;;;;;;;8.75;5.47;;;;;;;;;;4983976;28;20487;-78
2022/11/21 14:50:01;;;;;;;9.02;6.93;;;;;;;;;;4983428;28;20030;-78
2022/11/21 14:52:30;;;;;;;5.88;3.08;;;;;;;;;;4998533;28;20468;-77
2022/11/21 14:54:57;;;;;;;8.13;5.38;;;;;;;;;;5003281;28;20370;-77
2022/11/21 14:57:26;;;;;;;4.05;2.67;;;;;;;;;;5003155;28;20076;-77
2022/11/21 14:59:52;;;;;;;9.38;6.10;;;;;;;;;;5008831;28;20022;-77
2022/11/21 15:02:20;;;;;;;11.27;6.75;;;;;;;;;;4995322;28;20030;-77
2022/11/21 15:04:47;;;;;;;4.47;3.30;;;;;;;;;;4995787;28;20441;-76
2022/11/21 15:07:19;;;;;;;4.75;2.92;;;;;;;;;;4986530;28;20124;-76
2022/11/21 15:09:45;;;;;;;6.55;4.80;;;;;;;;;;4985106;28;20069;-76
2022/11/21 15:12:14;;;;;;;5.75;4.30;;;;;;;;;;4978789;28;20089;-77
2022/11/21 15:14:46;;;;;;;7.13;4.35;;;;;;;;;;4974938;28;20102;-76
2022/11/21 15:17:15;;;;;;;5.25;3.33;;;;;;;;;;4978189;28;20390;-77
2022/11/21 15:19:42;;;;;;;3.90;3.03;;;;;;;;;;4975364;28;20035;-77
2022/11/21 15:22:23;;;;;;;4.75;3.65;;;;;;;;;;5004322;28;20385;-79
2022/11/21 15:24:49;;;;;;;5.97;3.30;;;;;;;;;;5007017;28;20027;-77
2022/11/21 15:27:27;;;;;;;4.47;3.08;;;;;;;;;;4994264;28;20022;-77
2022/11/21 15:30:20;;;;;;;9.85;5.38;;;;;;;;;;4994859;28;20031;-76
2022/11/21 15:33:05;;;;;;;6.97;4.45;;;;;;;;;;4995423;28;20046;-77
2022/11/21 15:35:37;;;;;;;5.25;3.45;;;;;;;;;;4999743;28;20033;-77
2022/11/21 15:38:22;;;;;;;6.10;4.82;;;;;;;;;;5002497;28;20402;-77
2022/11/21 15:40:57;;;;;;;8.13;5.60;;;;;;;;;;4993996;28;20109;-77
2022/11/21 15:43:37;;;;;;;10.30;6.00;;;;;;;;;;4991997;28;20034;-77
2022/11/21 15:46:04;;;;;;;9.70;7.57;;;;;;;;;;4975389;28;20019;-77
2022/11/21 15:48:30;;;;;;;6.47;3.88;;;;;;;;;;4973514;28;20026;-77
2022/11/21 15:50:56;;;;;;;14.60;10.50;;;;;;;;;;4976398;28;20378;-77
2022/11/21 15:53:22;;;;;;;9.77;6.45;;;;;;;;;;5004247;28;20375;-77
2022/11/21 15:55:48;;;;;;;9.43;6.75;;;;;;;;;;4999748;28;20030;-77
2022/11/21 15:58:14;;;;;;;12.13;8.00;;;;;;;;;;5005807;28;20029;-77